Time;durP1;ratioP1;P1;durP2;ratioP2;P2;SDS_P1;SDS_P2;PMS_P1;PMS_P2;Temp;Humidity;BMP_temperature;BMP_pressure;BME280_temperature;BME280_humidity;BME280_pressure;Samples;Min_cycle;Max_cycle;Signal;HPM_P1;HPM_P2
2022/10/17 00:00:04;;;;;;;15.80;12.07;;;;;;;-145.18;100.00;46654.53;5051730;28;20111;-68
2022/10/17 00:02:29;;;;;;;19.27;12.83;;;;;;;-145.18;100.00;46656.50;5051099;28;20033;-68
2022/10/17 00:04:55;;;;;;;16.90;12.37;;;;;;;-145.18;100.00;46646.72;5051402;28;20130;-68
2022/10/17 00:07:20;;;;;;;14.47;10.73;;;;;;;-145.18;100.00;46650.63;5051102;28;20072;-68
2022/10/17 00:09:45;;;;;;;17.10;11.40;;;;;;;-145.18;100.00;46650.63;5051672;28;20060;-68
2022/10/17 00:12:11;;;;;;;15.33;11.63;;;;;;;-145.18;100.00;46652.59;5050974;28;20102;-68
2022/10/17 00:14:36;;;;;;;16.87;11.50;;;;;;;-145.18;100.00;46646.72;5050866;28;20031;-68
2022/10/17 00:17:02;;;;;;;18.00;11.50;;;;;;;-145.18;100.00;46652.59;5050223;28;20055;-68
2022/10/17 00:19:27;;;;;;;15.50;10.90;;;;;;;-145.18;100.00;46646.72;5050926;28;20033;-68
2022/10/17 00:21:53;;;;;;;14.80;11.40;;;;;;;-145.18;100.00;46650.63;5050955;28;20091;-68
2022/10/17 00:24:18;;;;;;;15.67;10.60;;;;;;;-145.18;100.00;46648.69;5050868;28;20146;-68
2022/10/17 00:26:43;;;;;;;15.00;11.40;;;;;;;-145.18;100.00;46652.59;5050561;28;20036;-68
2022/10/17 00:29:09;;;;;;;16.73;11.40;;;;;;;-145.18;100.00;46650.63;5051312;28;20036;-68
2022/10/17 00:31:34;;;;;;;16.17;10.57;;;;;;;-145.18;100.00;46654.53;5050492;28;20045;-68
2022/10/17 00:34:00;;;;;;;14.27;10.53;;;;;;;-145.18;100.00;46648.69;5051009;28;20036;-68
2022/10/17 00:36:25;;;;;;;17.17;12.50;;;;;;;-145.18;100.00;46650.63;5048899;28;20536;-68
2022/10/17 00:38:57;;;;;;;24.60;13.00;;;;;;;-145.18;100.00;46646.72;5049893;28;20032;-68
2022/10/17 00:41:29;;;;;;;19.40;13.73;;;;;;;-145.18;100.00;46646.72;5050210;28;20035;-68
2022/10/17 00:44:00;;;;;;;17.03;12.00;;;;;;;-145.18;100.00;46650.63;5050962;28;20123;-68
2022/10/17 00:46:29;;;;;;;15.23;12.10;;;;;;;-145.18;100.00;46654.53;5050149;28;20048;-68
2022/10/17 00:48:57;;;;;;;22.23;12.77;;;;;;;-145.18;100.00;46646.72;5050947;28;20420;-68
2022/10/17 00:51:39;;;;;;;17.17;11.67;;;;;;;-145.18;100.00;46646.72;5050059;28;20055;-68
2022/10/17 00:54:05;;;;;;;15.47;12.23;;;;;;;-145.18;100.00;46648.69;5050531;28;20028;-68
2022/10/17 00:56:31;;;;;;;17.77;12.03;;;;;;;-145.18;100.00;46654.53;5050021;28;20048;-68
2022/10/17 00:58:57;;;;;;;19.30;12.03;;;;;;;-145.18;100.00;46646.72;5050689;28;20025;-68
2022/10/17 01:01:22;;;;;;;17.40;12.43;;;;;;;-145.18;100.00;46648.69;5049602;28;20387;-68
2022/10/17 01:03:48;;;;;;;17.33;12.50;;;;;;;-145.18;100.00;46650.63;5050476;28;20045;-68
2022/10/17 01:06:13;;;;;;;18.77;11.37;;;;;;;-145.18;100.00;46644.78;5050130;28;20624;-68
2022/10/17 01:08:38;;;;;;;15.97;12.43;;;;;;;-145.18;100.00;46644.78;5050440;28;20410;-68
2022/10/17 01:11:19;;;;;;;18.27;12.17;;;;;;;-145.18;100.00;46652.59;5050393;28;20107;-68
2022/10/17 01:14:13;;;;;;;18.67;12.07;;;;;;;-145.18;100.00;46650.63;5050059;28;20517;-68
2022/10/17 01:16:59;;;;;;;17.33;12.17;;;;;;;-145.18;100.00;46648.69;5045758;28;20056;-68
2022/10/17 01:19:51;;;;;;;15.65;12.10;;;;;;;-145.18;100.00;46648.69;5050350;28;20021;-68
2022/10/17 01:22:38;;;;;;;14.93;12.03;;;;;;;-145.18;100.00;46646.72;5049775;28;20045;-68
2022/10/17 01:25:22;;;;;;;;;;;;;;;-145.18;100.00;46650.63;5050638;28;20540;-68
2022/10/17 01:28:10;;;;;;;22.30;12.67;;;;;;;-145.18;100.00;46644.78;5049544;28;20289;-68
2022/10/17 01:30:55;;;;;;;14.93;12.13;;;;;;;-145.18;100.00;46646.72;5050206;28;20036;-68
2022/10/17 01:33:53;;;;;;;16.13;12.05;;;;;;;-145.18;100.00;46650.63;5049791;28;20515;-68
2022/10/17 01:36:21;;;;;;;16.23;12.90;;;;;;;-145.18;100.00;46648.69;5047814;28;20131;-68
2022/10/17 01:39:13;;;;;;;22.07;13.20;;;;;;;-145.18;100.00;46646.72;5050303;28;20460;-68
2022/10/17 01:41:56;;;;;;;14.67;12.60;;;;;;;-145.18;100.00;46646.72;5049704;28;20031;-68
2022/10/17 01:44:33;;;;;;;16.47;13.43;;;;;;;-145.18;100.00;46652.59;5050043;28;20119;-68
2022/10/17 01:47:03;;;;;;;17.90;13.27;;;;;;;-145.18;100.00;46646.72;5049728;28;20041;-68
2022/10/17 01:49:30;;;;;;;18.30;13.03;;;;;;;-145.18;100.00;46648.69;5050121;28;20020;-68
2022/10/17 01:52:02;;;;;;;21.23;12.67;;;;;;;-145.18;100.00;46644.78;5049878;28;20048;-68
2022/10/17 01:54:38;;;;;;;14.97;12.17;;;;;;;-145.18;100.00;46646.72;5049786;28;20371;-68
2022/10/17 01:57:08;;;;;;;19.95;13.38;;;;;;;-145.18;100.00;46648.69;5050038;28;20029;-68
2022/10/17 01:59:43;;;;;;;15.03;12.17;;;;;;;-145.18;100.00;46650.63;5049970;28;20039;-68
2022/10/17 02:02:11;;;;;;;16.37;11.53;;;;;;;-145.18;100.00;46652.59;5049513;28;20045;-68
2022/10/17 02:04:37;;;;;;;21.73;13.40;;;;;;;-145.18;100.00;46650.63;5048454;28;20076;-68
2022/10/17 02:07:11;;;;;;;19.30;13.23;;;;;;;-145.18;100.00;46648.69;5049583;28;20147;-68
2022/10/17 02:09:37;;;;;;;16.53;11.93;;;;;;;-145.18;100.00;46650.63;5049910;28;20036;-68
2022/10/17 02:12:40;;;;;;;16.03;11.53;;;;;;;-145.18;100.00;46652.59;5049723;28;20021;-68
2022/10/17 02:15:27;;;;;;;20.73;11.73;;;;;;;-145.18;100.00;46646.72;5049027;28;20478;-68
2022/10/17 02:18:22;;;;;;;15.67;12.23;;;;;;;-145.18;100.00;46654.53;5049668;28;20028;-68
2022/10/17 02:20:48;;;;;;;19.20;12.50;;;;;;;-145.18;100.00;46654.53;5049785;28;20112;-68
2022/10/17 02:23:20;;;;;;;15.50;11.70;;;;;;;-145.18;100.00;46646.72;5049414;28;20103;-68
2022/10/17 02:26:16;;;;;;;15.90;11.63;;;;;;;-145.18;100.00;46648.69;5049768;28;20474;-68
2022/10/17 02:28:45;;;;;;;13.80;11.80;;;;;;;-145.18;100.00;46650.63;5049507;28;20017;-68
2022/10/17 02:31:24;;;;;;;20.67;12.90;;;;;;;-145.18;100.00;46644.78;5049758;28;20029;-68
2022/10/17 02:33:57;;;;;;;18.37;12.13;;;;;;;-145.18;100.00;46648.69;5049790;28;20053;-68
2022/10/17 02:36:31;;;;;;;19.07;13.83;;;;;;;-145.18;100.00;46646.72;5047857;28;20051;-68
2022/10/17 02:38:57;;;;;;;19.57;13.70;;;;;;;-145.18;100.00;46646.72;5050608;28;20467;-68
2022/10/17 02:41:24;;;;;;;16.30;12.70;;;;;;;-145.18;100.00;46648.69;5052901;28;20051;-68
2022/10/17 02:43:51;;;;;;;17.67;12.63;;;;;;;-145.18;100.00;46642.81;5053145;28;20433;-68
2022/10/17 02:46:20;;;;;;;20.97;12.77;;;;;;;-145.18;100.00;46648.69;5052913;28;20028;-68
2022/10/17 02:49:09;;;;;;;16.83;11.67;;;;;;;-145.18;100.00;46652.59;5052630;28;20051;-68
2022/10/17 02:52:00;;;;;;;21.67;11.77;;;;;;;-145.18;100.00;46648.69;5052400;28;20033;-68
2022/10/17 02:54:28;;;;;;;20.37;11.30;;;;;;;-145.18;100.00;46642.81;5052684;28;20033;-68
2022/10/17 02:57:18;;;;;;;15.70;11.33;;;;;;;-145.18;100.00;46646.72;5052710;28;20037;-68
2022/10/17 02:59:45;;;;;;;20.80;13.07;;;;;;;-145.18;100.00;46648.69;5053007;28;20110;-68
2022/10/17 03:02:11;;;;;;;15.83;12.07;;;;;;;-145.18;100.00;46650.63;5342224;22;20048;-69
2022/10/17 03:04:37;;;;;;;14.60;11.80;;;;;;;-145.18;100.00;46650.63;5069327;28;20075;-69
2022/10/17 03:07:02;;;;;;;16.10;11.63;;;;;;;-145.18;100.00;46652.59;5072386;28;20036;-69
2022/10/17 03:09:28;;;;;;;17.63;12.00;;;;;;;-145.18;100.00;46644.78;5072591;28;20034;-69
2022/10/17 03:11:53;;;;;;;14.10;11.20;;;;;;;-145.18;100.00;46650.63;5072101;28;20040;-69
2022/10/17 03:14:19;;;;;;;19.23;12.10;;;;;;;-145.18;100.00;46648.69;5072631;28;20530;-69
2022/10/17 03:16:44;;;;;;;18.03;12.33;;;;;;;-145.18;100.00;46646.72;5072480;28;20051;-69
2022/10/17 03:19:10;;;;;;;19.80;11.70;;;;;;;-145.18;100.00;46646.72;5072025;28;20119;-69
2022/10/17 03:21:36;;;;;;;18.80;12.73;;;;;;;-145.18;100.00;46646.72;5072638;28;20029;-69
2022/10/17 03:24:02;;;;;;;15.10;11.30;;;;;;;-145.18;100.00;46646.72;5072035;28;20040;-69
2022/10/17 03:26:28;;;;;;;22.50;11.50;;;;;;;-145.18;100.00;46652.59;5072599;28;20044;-69
2022/10/17 03:28:53;;;;;;;19.53;11.90;;;;;;;-145.18;100.00;46646.72;5071941;28;20035;-69
2022/10/17 03:31:19;;;;;;;16.60;12.00;;;;;;;-145.18;100.00;46648.69;5072385;28;20036;-69
2022/10/17 03:33:44;;;;;;;13.83;10.90;;;;;;;-145.18;100.00;46648.69;5071944;28;20024;-69
2022/10/17 03:36:15;;;;;;;17.37;11.13;;;;;;;-145.18;100.00;46648.69;5072076;28;20112;-69
2022/10/17 03:38:41;;;;;;;15.43;10.90;;;;;;;-145.18;100.00;46652.59;5072017;28;20043;-69
2022/10/17 03:41:07;;;;;;;17.13;11.30;;;;;;;-145.18;100.00;46652.59;5072046;28;20028;-69
2022/10/17 03:43:33;;;;;;;15.83;10.77;;;;;;;-145.18;100.00;46646.72;5071814;28;20131;-69
2022/10/17 03:45:59;;;;;;;15.17;11.17;;;;;;;-145.18;100.00;46646.72;5060561;28;20021;-69
2022/10/17 03:48:27;;;;;;;14.57;10.57;;;;;;;-145.18;100.00;46646.72;5060110;28;20493;-70
2022/10/17 03:51:01;;;;;;;16.33;10.33;;;;;;;-145.18;100.00;46650.63;5061813;28;20028;-69
2022/10/17 03:53:26;;;;;;;16.40;11.10;;;;;;;-145.18;100.00;46652.59;5062052;28;20048;-68
2022/10/17 03:55:52;;;;;;;13.83;10.97;;;;;;;-145.18;100.00;46648.69;5060720;28;20086;-68
2022/10/17 03:58:17;;;;;;;12.57;10.33;;;;;;;-145.18;100.00;46644.78;5059318;28;20401;-69
2022/10/17 04:00:43;;;;;;;14.03;10.80;;;;;;;-145.18;100.00;46648.69;5062454;28;20128;-69
2022/10/17 04:03:08;;;;;;;13.67;10.90;;;;;;;-145.18;100.00;46644.78;5058647;28;20124;-69
2022/10/17 04:05:33;;;;;;;12.50;9.63;;;;;;;-145.18;100.00;46652.59;5060827;28;20482;-69
2022/10/17 04:07:59;;;;;;;13.77;9.73;;;;;;;-145.18;100.00;46652.59;5059705;28;20025;-69
2022/10/17 04:10:24;;;;;;;16.77;10.17;;;;;;;-145.18;100.00;46652.59;5060124;28;20067;-69
2022/10/17 04:12:50;;;;;;;18.20;10.53;;;;;;;-145.18;100.00;46646.72;5059559;28;20017;-68
2022/10/17 04:15:15;;;;;;;18.27;11.60;;;;;;;-145.18;100.00;46650.63;5061058;28;20035;-68
2022/10/17 04:17:40;;;;;;;16.23;11.03;;;;;;;-145.18;100.00;46646.72;5063702;28;20036;-68
2022/10/17 04:20:06;;;;;;;17.90;10.37;;;;;;;-145.18;100.00;46650.63;5071308;28;20029;-68
2022/10/17 04:22:32;;;;;;;13.60;10.17;;;;;;;-145.18;100.00;46652.59;5070996;28;20123;-68
2022/10/17 04:24:57;;;;;;;13.70;11.60;;;;;;;-145.18;100.00;46654.53;5071486;28;20029;-68
2022/10/17 04:27:22;;;;;;;16.37;10.77;;;;;;;-145.18;100.00;46650.63;5070718;28;20097;-69
2022/10/17 04:29:48;;;;;;;16.57;10.77;;;;;;;-145.18;100.00;46650.63;5071440;28;20044;-68
2022/10/17 04:32:14;;;;;;;16.57;12.00;;;;;;;-145.18;100.00;46648.69;5070546;28;20530;-68
2022/10/17 04:34:39;;;;;;;20.43;11.27;;;;;;;-145.18;100.00;46646.72;5070996;28;20443;-68
2022/10/17 04:37:04;;;;;;;16.60;10.97;;;;;;;-145.18;100.00;46650.63;5070717;28;20128;-68
2022/10/17 04:39:30;;;;;;;16.87;11.13;;;;;;;-145.18;100.00;46646.72;5070895;28;20078;-68
2022/10/17 04:41:55;;;;;;;16.30;11.60;;;;;;;-145.18;100.00;46652.59;5069840;28;20036;-69
2022/10/17 04:44:21;;;;;;;20.23;11.90;;;;;;;-145.18;100.00;46646.72;5069760;28;20082;-68
2022/10/17 04:46:46;;;;;;;15.23;11.03;;;;;;;-145.18;100.00;46648.69;5071031;28;20029;-68
2022/10/17 04:49:11;;;;;;;16.23;10.93;;;;;;;-145.18;100.00;46648.69;5070464;28;20457;-68
2022/10/17 04:51:37;;;;;;;16.33;11.83;;;;;;;-145.18;100.00;46650.63;5069692;28;20059;-68
2022/10/17 04:54:03;;;;;;;19.23;11.03;;;;;;;-145.18;100.00;46652.59;5070088;28;20032;-68
2022/10/17 04:56:28;;;;;;;15.03;11.83;;;;;;;-145.18;100.00;46652.59;5068276;28;20450;-68
2022/10/17 04:58:54;;;;;;;24.37;11.63;;;;;;;-145.18;100.00;46648.69;5070064;28;20036;-68
2022/10/17 05:01:21;;;;;;;20.23;11.60;;;;;;;-145.18;100.00;46646.72;5070006;28;20056;-68
2022/10/17 05:03:46;;;;;;;16.77;11.90;;;;;;;-145.18;100.00;46652.59;5070170;28;20079;-69
2022/10/17 05:06:18;;;;;;;13.80;11.30;;;;;;;-145.18;100.00;46648.69;5070218;28;20500;-69
2022/10/17 05:08:44;;;;;;;17.37;11.67;;;;;;;-145.18;100.00;46650.63;5070415;28;20408;-68
2022/10/17 05:11:28;;;;;;;15.40;10.73;;;;;;;-145.18;100.00;46646.72;5067771;28;20037;-69
2022/10/17 05:14:00;;;;;;;17.93;11.07;;;;;;;-145.18;100.00;46652.59;5054522;28;20622;-68
2022/10/17 05:16:26;;;;;;;20.30;11.57;;;;;;;-145.18;100.00;46646.72;5049766;28;20071;-69
2022/10/17 05:18:54;;;;;;;13.53;10.70;;;;;;;-145.18;100.00;46652.59;5050191;28;20032;-69
2022/10/17 05:21:21;;;;;;;12.57;10.70;;;;;;;-145.18;100.00;46648.69;5055290;28;20029;-69
2022/10/17 05:23:47;;;;;;;15.57;10.73;;;;;;;-145.18;100.00;46650.63;5065353;28;20036;-69
2022/10/17 05:26:12;;;;;;;16.07;11.73;;;;;;;-145.18;100.00;46652.59;5069975;28;20039;-69
2022/10/17 05:28:38;;;;;;;17.73;10.73;;;;;;;-145.18;100.00;46648.69;5070101;28;20036;-69
2022/10/17 05:31:04;;;;;;;16.47;11.60;;;;;;;-145.18;100.00;46652.59;5070381;28;20048;-69
2022/10/17 05:33:30;;;;;;;14.63;10.80;;;;;;;-145.18;100.00;46656.50;5070070;28;20075;-69
2022/10/17 05:35:56;;;;;;;17.90;11.90;;;;;;;-145.18;100.00;46648.69;5070298;28;20574;-69
2022/10/17 05:38:21;;;;;;;17.50;10.80;;;;;;;-145.18;100.00;46650.63;5070202;28;20476;-69
2022/10/17 05:40:47;;;;;;;14.03;10.80;;;;;;;-145.18;100.00;46650.63;5070104;28;20068;-69
2022/10/17 05:43:13;;;;;;;17.80;11.33;;;;;;;-145.18;100.00;46646.72;5070077;28;20481;-69
2022/10/17 05:45:39;;;;;;;27.63;10.97;;;;;;;-145.18;100.00;46652.59;5069043;28;20513;-69
2022/10/17 05:48:05;;;;;;;13.10;11.40;;;;;;;-145.18;100.00;46646.72;5069935;28;20036;-69
2022/10/17 05:50:30;;;;;;;16.10;11.63;;;;;;;-145.18;100.00;46652.59;5068824;28;20029;-68
2022/10/17 05:52:56;;;;;;;12.90;10.90;;;;;;;-145.18;100.00;46648.69;5058129;28;20033;-69
2022/10/17 05:55:22;;;;;;;22.53;12.53;;;;;;;-145.18;100.00;46652.59;5060071;28;20044;-69
2022/10/17 05:57:48;;;;;;;18.37;11.70;;;;;;;-145.18;100.00;46648.69;5069701;28;20112;-69
2022/10/17 06:00:13;;;;;;;12.57;11.10;;;;;;;-145.18;100.00;46648.69;5068384;28;20120;-70
2022/10/17 06:02:39;;;;;;;23.77;11.63;;;;;;;-145.18;100.00;46648.69;5065485;28;20483;-69
2022/10/17 06:05:04;;;;;;;15.00;10.77;;;;;;;-145.18;100.00;46646.72;5069485;28;20651;-69
2022/10/17 06:07:30;;;;;;;21.30;11.83;;;;;;;-145.18;100.00;46646.72;5069046;28;20051;-69
2022/10/17 06:09:56;;;;;;;14.10;10.27;;;;;;;-145.18;100.00;46650.63;5069725;28;20032;-69
2022/10/17 06:12:22;;;;;;;18.07;10.77;;;;;;;-145.18;100.00;46650.63;5065772;28;20032;-69
2022/10/17 06:14:47;;;;;;;19.03;11.00;;;;;;;-145.18;100.00;46646.72;5072379;28;20055;-69
2022/10/17 06:17:13;;;;;;;14.43;10.40;;;;;;;-145.18;100.00;46648.69;5072323;28;20489;-69
2022/10/17 06:19:40;;;;;;;17.30;10.87;;;;;;;-145.18;100.00;46650.63;5072621;28;20162;-69
2022/10/17 06:22:05;;;;;;;14.30;10.53;;;;;;;-145.18;100.00;46650.63;5073342;28;20048;-69
2022/10/17 06:24:30;;;;;;;19.60;10.27;;;;;;;-145.18;100.00;46644.78;5072999;28;20037;-69
2022/10/17 06:26:56;;;;;;;14.20;10.67;;;;;;;-145.18;100.00;46642.81;5073310;28;20086;-69
2022/10/17 06:29:22;;;;;;;15.73;10.67;;;;;;;-145.18;100.00;46652.59;5063827;28;20036;-69
2022/10/17 06:31:47;;;;;;;13.33;10.10;;;;;;;-145.18;100.00;46648.69;5053378;28;20047;-69
2022/10/17 06:34:12;;;;;;;17.23;10.37;;;;;;;-145.18;100.00;46650.63;5052767;28;20037;-69
2022/10/17 06:36:38;;;;;;;15.47;11.07;;;;;;;-145.18;100.00;46652.59;5054675;28;20033;-69
2022/10/17 06:39:03;;;;;;;18.27;10.77;;;;;;;-145.18;100.00;46652.59;5070020;28;20398;-69
2022/10/17 06:41:29;;;;;;;14.50;10.23;;;;;;;-145.18;100.00;46654.53;5073466;28;20043;-69
2022/10/17 06:43:54;;;;;;;14.43;10.40;;;;;;;-145.18;100.00;46648.69;5073038;28;20477;-69
2022/10/17 06:46:20;;;;;;;13.10;9.47;;;;;;;-145.18;100.00;46652.59;5072857;28;20024;-69
2022/10/17 06:48:45;;;;;;;16.83;10.70;;;;;;;-145.18;100.00;46650.63;5072859;28;20082;-69
2022/10/17 06:51:11;;;;;;;18.03;9.53;;;;;;;-145.18;100.00;46658.44;5073011;28;20028;-69
2022/10/17 06:53:38;;;;;;;13.87;10.03;;;;;;;-145.18;100.00;46652.59;5072935;28;20545;-69
2022/10/17 06:56:05;;;;;;;17.30;10.73;;;;;;;-145.18;100.00;46654.53;5072852;28;20028;-69
2022/10/17 06:58:37;;;;;;;14.17;9.03;;;;;;;-145.18;100.00;46652.59;5072610;28;20040;-69
2022/10/17 07:01:09;;;;;;;16.73;9.83;;;;;;;-145.18;100.00;46648.69;5072647;28;20020;-69
2022/10/17 07:03:34;;;;;;;15.80;9.73;;;;;;;-145.18;100.00;46652.59;5071680;28;20086;-69
2022/10/17 07:05:59;;;;;;;12.40;9.57;;;;;;;-145.18;100.00;46650.63;5072796;28;20036;-69
2022/10/17 07:08:25;;;;;;;18.97;10.30;;;;;;;-145.18;100.00;46656.50;5072468;28;20029;-69
2022/10/17 07:10:51;;;;;;;16.23;9.80;;;;;;;-145.18;100.00;46656.50;5072338;28;20506;-69
2022/10/17 07:13:17;;;;;;;12.90;9.17;;;;;;;-145.18;100.00;46652.59;5072167;28;20063;-69
2022/10/17 07:15:43;;;;;;;13.60;9.60;;;;;;;-145.18;100.00;46658.44;5072736;28;20508;-69
2022/10/17 07:18:09;;;;;;;15.37;10.00;;;;;;;-145.18;100.00;46650.63;5072082;28;20120;-69
2022/10/17 07:20:34;;;;;;;12.93;10.30;;;;;;;-145.18;100.00;46652.59;5072875;28;20029;-69
2022/10/17 07:23:00;;;;;;;13.93;10.13;;;;;;;-145.18;100.00;46654.53;5071752;28;20028;-69
2022/10/17 07:25:25;;;;;;;26.47;10.13;;;;;;;-145.18;100.00;46656.50;5072124;28;20064;-69
2022/10/17 07:27:51;;;;;;;11.07;9.63;;;;;;;-145.18;100.00;46650.63;5072153;28;20040;-69
2022/10/17 07:30:18;;;;;;;18.77;9.67;;;;;;;-145.18;100.00;46652.59;5072176;28;20032;-69
2022/10/17 07:32:43;;;;;;;17.60;10.10;;;;;;;-145.18;100.00;46656.50;5072111;28;20067;-69
2022/10/17 07:35:10;;;;;;;16.93;10.13;;;;;;;-145.18;100.00;46648.69;5071810;28;20056;-68
2022/10/17 07:37:36;;;;;;;16.50;9.97;;;;;;;-145.18;100.00;46658.44;5071699;28;20085;-68
2022/10/17 07:40:03;;;;;;;16.30;9.73;;;;;;;-145.18;100.00;46656.50;5071841;28;20032;-68
2022/10/17 07:42:28;;;;;;;14.67;9.37;;;;;;;-145.18;100.00;46658.44;5072040;28;20028;-69
2022/10/17 07:44:54;;;;;;;14.00;8.93;;;;;;;-145.18;100.00;46650.63;5071737;28;20024;-70
2022/10/17 07:47:20;;;;;;;19.73;10.37;;;;;;;-145.18;100.00;46660.41;5072044;28;20020;-71
2022/10/17 07:49:45;;;;;;;16.33;9.23;;;;;;;-145.18;100.00;46650.63;5071828;28;20021;-70
2022/10/17 07:52:15;;;;;;;17.33;10.50;;;;;;;-145.18;100.00;46650.63;5071300;28;20056;-70
2022/10/17 07:54:41;;;;;;;18.27;9.67;;;;;;;-145.18;100.00;46656.50;5071692;28;20051;-69
2022/10/17 07:57:06;;;;;;;19.53;10.00;;;;;;;-145.18;100.00;46652.59;5071692;28;20439;-69
2022/10/17 07:59:33;;;;;;;18.70;11.23;;;;;;;-145.18;100.00;46646.72;5071601;28;20037;-69
2022/10/17 08:01:59;;;;;;;16.90;9.53;;;;;;;-145.18;100.00;46652.59;5071171;28;20036;-70
2022/10/17 08:04:25;;;;;;;13.90;9.33;;;;;;;-145.18;100.00;46648.69;5071024;28;20660;-70
2022/10/17 08:06:51;;;;;;;16.93;10.20;;;;;;;-145.18;100.00;46646.72;5071908;28;20154;-70
2022/10/17 08:09:16;;;;;;;15.83;10.83;;;;;;;-145.18;100.00;46652.59;5070920;28;20494;-69
2022/10/17 08:11:44;;;;;;;17.73;10.77;;;;;;;-145.18;100.00;46648.69;5071626;28;20032;-69
2022/10/17 08:14:11;;;;;;;16.47;10.07;;;;;;;-145.18;100.00;46648.69;5071069;28;20112;-69
2022/10/17 08:16:37;;;;;;;13.77;10.00;;;;;;;-145.18;100.00;46650.63;5071253;28;20036;-69
2022/10/17 08:19:03;;;;;;;16.93;10.70;;;;;;;-145.18;100.00;46644.78;5071102;28;20070;-69
2022/10/17 08:21:29;;;;;;;17.80;9.90;;;;;;;-145.18;100.00;46648.69;5071537;28;20032;-69
2022/10/17 08:23:54;;;;;;;16.50;10.73;;;;;;;-145.18;100.00;46652.59;5070963;28;20052;-71
2022/10/17 08:26:20;;;;;;;16.87;10.60;;;;;;;-145.18;100.00;46648.69;5071110;28;20052;-70
2022/10/17 08:28:46;;;;;;;16.17;10.33;;;;;;;-145.18;100.00;46648.69;5071030;28;20036;-69
2022/10/17 08:31:13;;;;;;;15.07;11.03;;;;;;;-145.18;100.00;46646.72;5070962;28;20059;-69
2022/10/17 08:33:40;;;;;;;16.10;11.07;;;;;;;-145.18;100.00;46646.72;5070920;28;20511;-69
2022/10/17 08:36:07;;;;;;;17.17;11.57;;;;;;;-145.18;100.00;46646.72;5070252;28;20383;-69
2022/10/17 08:38:34;;;;;;;14.97;10.97;;;;;;;-145.18;100.00;46650.63;5070754;28;20400;-69
2022/10/17 08:41:03;;;;;;;21.03;11.30;;;;;;;-145.18;100.00;46642.81;5070990;28;20055;-70
2022/10/17 08:44:10;;;;;;;21.50;10.97;;;;;;;-145.18;100.00;46644.78;5057957;28;20032;-72
2022/10/17 08:46:38;;;;;;;;;;;;;;;-145.18;100.00;46648.69;5071210;28;20439;-69
2022/10/17 08:49:10;;;;;;;17.90;11.47;;;;;;;-145.18;100.00;46650.63;5070335;28;19912;-69
2022/10/17 08:51:43;;;;;;;16.73;12.77;;;;;;;-145.18;100.00;46652.59;5071266;28;20374;-68
2022/10/17 08:54:15;;;;;;;17.57;12.50;;;;;;;-145.18;100.00;46648.69;5070492;28;20424;-68
2022/10/17 08:56:47;;;;;;;18.20;12.53;;;;;;;-145.18;100.00;46648.69;5068548;28;20038;-68
2022/10/17 08:59:20;;;;;;;21.67;12.33;;;;;;;-145.18;100.00;46646.72;5068959;28;20056;-68
2022/10/17 09:01:55;;;;;;;17.30;12.30;;;;;;;-145.18;100.00;46646.72;5070557;28;20491;-68
2022/10/17 09:04:32;;;;;;;21.13;12.93;;;;;;;-145.18;100.00;46646.72;5069885;28;20079;-68
2022/10/17 09:07:19;;;;;;;20.50;12.33;;;;;;;-145.18;100.00;46650.63;5070450;28;20142;-68
2022/10/17 09:10:00;;;;;;;17.83;13.17;;;;;;;-145.18;100.00;46652.59;5070117;28;20024;-69
2022/10/17 09:12:50;;;;;;;18.53;12.33;;;;;;;-145.18;100.00;46644.78;5070169;28;20031;-69
2022/10/17 09:15:39;;;;;;;18.43;12.23;;;;;;;-145.18;100.00;46644.78;5069130;28;20032;-69
2022/10/17 09:18:20;;;;;;;20.67;12.83;;;;;;;-145.18;100.00;46642.81;5069868;28;20063;-68
2022/10/17 09:20:50;;;;;;;18.60;12.70;;;;;;;-145.18;100.00;46646.72;5070312;28;20116;-70
2022/10/17 09:23:20;;;;;;;21.07;13.90;;;;;;;-145.18;100.00;46648.69;5069470;28;20107;-69
2022/10/17 09:25:49;;;;;;;18.97;12.43;;;;;;;-145.18;100.00;46644.78;5070353;28;20028;-70
2022/10/17 09:28:39;;;;;;;19.10;13.30;;;;;;;-145.18;100.00;46652.59;5069046;28;20381;-68
2022/10/17 09:31:25;;;;;;;19.80;13.80;;;;;;;-145.18;100.00;46650.63;5066087;28;20040;-70
2022/10/17 09:33:53;;;;;;;;;;;;;;;-145.18;100.00;46648.69;5070203;28;20554;-68
2022/10/17 09:36:23;;;;;;;19.17;14.10;;;;;;;-145.18;100.00;46644.78;5069787;28;19912;-67
2022/10/17 09:39:00;;;;;;;19.07;13.23;;;;;;;-145.18;100.00;46646.72;5069609;28;20033;-68
2022/10/17 09:41:47;;;;;;;18.60;13.87;;;;;;;-145.18;100.00;46646.72;5070100;28;20040;-68
2022/10/17 09:44:15;;;;;;;20.67;15.30;;;;;;;-145.18;100.00;46648.69;5069287;28;20033;-69
2022/10/17 09:46:47;;;;;;;22.27;15.03;;;;;;;-145.18;100.00;46638.91;5069876;28;20032;-70
2022/10/17 09:49:30;;;;;;;21.03;14.67;;;;;;;-145.18;100.00;46648.69;5072513;28;20028;-70
2022/10/17 09:51:56;;;;;;;20.67;15.37;;;;;;;-145.18;100.00;46644.78;5074277;28;20028;-69
2022/10/17 09:54:30;;;;;;;17.00;14.57;;;;;;;-145.18;100.00;46646.72;5073198;28;20027;-70
2022/10/17 09:56:56;;;;;;;22.60;14.50;;;;;;;-145.18;100.00;46650.63;5073695;28;20481;-69
2022/10/17 09:59:37;;;;;;;17.83;14.30;;;;;;;-145.18;100.00;46650.63;5073158;28;20028;-69
2022/10/17 10:02:11;;;;;;;19.13;14.80;;;;;;;-145.18;100.00;46642.81;5073464;28;20032;-69
2022/10/17 10:04:55;;;;;;;17.97;13.73;;;;;;;-145.18;100.00;46648.69;5073327;28;20037;-69
2022/10/17 10:07:21;;;;;;;16.37;12.03;;;;;;;-145.18;100.00;46648.69;5073272;28;20032;-70
2022/10/17 10:09:48;;;;;;;15.10;13.20;;;;;;;-145.18;100.00;46648.69;5073209;28;20028;-69
2022/10/17 10:12:20;;;;;;;14.77;13.23;;;;;;;-145.18;100.00;46646.72;5073415;28;20505;-70
2022/10/17 10:14:45;;;;;;;13.87;12.23;;;;;;;-145.18;100.00;46642.81;5073211;28;20039;-70
2022/10/17 10:17:32;;;;;;;15.03;11.40;;;;;;;-145.18;100.00;46648.69;5072881;28;20032;-70
2022/10/17 10:19:58;;;;;;;14.93;11.70;;;;;;;-145.18;100.00;46650.63;5073128;28;20041;-70
2022/10/17 10:22:23;;;;;;;14.30;11.37;;;;;;;-145.18;100.00;46650.63;5073043;28;20350;-70
2022/10/17 10:25:21;;;;;;;12.97;10.50;;;;;;;-145.18;100.00;46644.78;5072775;28;20028;-70
2022/10/17 10:27:47;;;;;;;10.80;9.17;;;;;;;-145.18;100.00;46648.69;5059069;28;20040;-71
2022/10/17 10:30:23;;;;;;;23.83;10.33;;;;;;;-145.18;100.00;46648.69;5061632;28;20081;-70
2022/10/17 10:32:49;;;;;;;10.70;9.60;;;;;;;-145.18;100.00;46646.72;5073221;28;20047;-70
2022/10/17 10:35:21;;;;;;;13.07;10.43;;;;;;;-145.18;100.00;46648.69;5069122;28;20040;-70
2022/10/17 10:37:54;;;;;;;11.50;9.87;;;;;;;-145.18;100.00;46650.63;5073119;28;20492;-70
2022/10/17 10:40:25;;;;;;;13.60;9.57;;;;;;;-145.18;100.00;46646.72;5068697;28;20157;-70
2022/10/17 10:42:56;;;;;;;13.23;10.13;;;;;;;-145.18;100.00;46648.69;5059375;28;20032;-70
2022/10/17 10:45:23;;;;;;;13.40;10.07;;;;;;;-145.18;100.00;46654.53;5057337;28;20029;-70
2022/10/17 10:47:52;;;;;;;13.00;9.90;;;;;;;-145.18;100.00;46656.50;5073020;28;20036;-70
2022/10/17 10:50:30;;;;;;;11.27;10.00;;;;;;;-145.18;100.00;46654.53;5071042;28;20040;-70
2022/10/17 10:53:03;;;;;;;14.17;10.10;;;;;;;-145.18;100.00;46654.53;5071922;28;20029;-70
2022/10/17 10:55:57;;;;;;;11.73;9.93;;;;;;;-145.18;100.00;46656.50;5070647;28;20123;-70
2022/10/17 10:58:31;;;;;;;11.70;8.80;;;;;;;-145.18;100.00;46656.50;5069840;28;20505;-70
2022/10/17 11:01:01;;;;;;;12.60;9.30;;;;;;;-145.18;100.00;46658.44;5071719;28;20354;-70
2022/10/17 11:03:39;;;;;;;10.13;8.67;;;;;;;-145.18;100.00;46648.69;5071888;28;20489;-69
2022/10/17 11:06:15;;;;;;;10.40;7.57;;;;;;;-145.18;100.00;46652.59;5072313;28;20028;-69
2022/10/17 11:08:46;;;;;;;;;;;;;;;-145.18;100.00;46656.50;5072685;28;20029;-70